YTMS weather

Public forecast

Using degrees Celsius for public forecast. Weather courtesy of forecast.io.

Closest aviation weather report (METAR) to Tambar Springs Airport

Closest report is Coonabarabran Airport, 29.8 nm (55.1 km) W. Retrieved 2020/08/13 11:00 UTC (47 minutes ago):

YCBB 131100Z AUTO 24005KT 9999 // NCD 13/05 Q1017

Closest aviation forecast (TAF) to Tambar Springs Airport

Closest forecast is Tamworth Airport, 53.2 nm (98.5 km) ENE. Retrieved 2020/08/13 06:00 UTC (6 hours ago):

TAF YSTW 130530Z 1306/1400 29010KT CAVOK FM131200 14005KT CAVOK